Time;durP1;ratioP1;P1;durP2;ratioP2;P2;SDS_P1;SDS_P2;PMS_P1;PMS_P2;Temp;Humidity;BMP_temperature;BMP_pressure;BME280_temperature;BME280_humidity;BME280_pressure;Samples;Min_cycle;Max_cycle;Signal;HPM_P1;HPM_P2
2021/03/01 00:01:18;;;;;;;39.80;23.67;;;;;;;4.59;70.42;95265.45;1806484;79;21119;-50
2021/03/01 00:03:46;;;;;;;34.65;21.87;;;;;;;4.56;70.40;95271.69;1822096;78;21154;-50
2021/03/01 00:06:15;;;;;;;26.23;17.37;;;;;;;4.59;70.79;95276.34;1806395;79;21089;-49
2021/03/01 00:08:44;;;;;;;29.55;18.77;;;;;;;4.69;70.71;95283.70;1822103;78;21073;-49
2021/03/01 00:11:14;;;;;;;26.02;18.73;;;;;;;4.81;70.44;95285.20;1822105;78;21052;-49
2021/03/01 00:13:44;;;;;;;72.53;34.67;;;;;;;4.93;70.13;95288.85;1822117;78;21071;-49
2021/03/01 00:16:13;;;;;;;34.03;21.37;;;;;;;4.87;69.93;95287.12;1822075;78;21039;-49
2021/03/01 00:18:43;;;;;;;33.88;19.40;;;;;;;4.79;70.22;95297.86;1806403;79;21044;-50
2021/03/01 00:21:12;;;;;;;27.80;15.55;;;;;;;4.75;70.34;95298.47;1822142;78;21059;-49
2021/03/01 00:23:40;;;;;;;44.05;26.50;;;;;;;4.68;70.25;95303.95;1806382;79;21339;-49
2021/03/01 00:26:10;;;;;;;40.40;22.73;;;;;;;4.57;70.49;95296.40;1822110;78;21830;-50
2021/03/01 00:28:38;;;;;;;47.53;25.50;;;;;;;4.48;70.73;95294.70;1822040;78;21111;-50
2021/03/01 00:31:06;;;;;;;54.93;31.50;;;;;;;4.45;71.07;95295.46;1822111;78;21119;-51
2021/03/01 00:33:34;;;;;;;53.35;32.48;;;;;;;4.49;71.01;95300.33;1806376;79;21068;-49
2021/03/01 00:36:05;;;;;;;41.83;23.35;;;;;;;4.50;71.07;95295.08;1822012;78;21057;-50
2021/03/01 00:38:33;;;;;;;38.23;23.30;;;;;;;4.49;71.07;95288.08;1822036;78;21055;-50
2021/03/01 00:41:03;;;;;;;29.57;18.30;;;;;;;4.44;71.56;95295.88;1822091;78;21047;-49
2021/03/01 00:43:34;;;;;;;26.23;18.07;;;;;;;4.47;71.43;95298.59;1822081;78;21072;-49
2021/03/01 00:46:02;;;;;;;31.05;18.55;;;;;;;4.37;71.51;95293.94;1806489;79;21500;-50
2021/03/01 00:48:30;;;;;;;27.37;15.72;;;;;;;4.37;71.62;95298.03;1822030;78;21378;-50
2021/03/01 00:50:59;;;;;;;29.92;18.90;;;;;;;4.31;71.76;95299.61;1806258;78;21103;-54
2021/03/01 00:53:29;;;;;;;39.75;21.00;;;;;;;4.36;72.12;95291.59;1822091;78;21107;-51
2021/03/01 00:55:58;;;;;;;25.88;17.55;;;;;;;4.47;72.02;95289.06;1806294;79;21123;-49
2021/03/01 00:58:26;;;;;;;35.00;20.05;;;;;;;4.60;71.83;95286.67;1822142;78;21047;-49
2021/03/01 01:00:54;;;;;;;30.25;19.80;;;;;;;4.61;71.39;95287.62;1806357;79;21347;-50
2021/03/01 01:03:23;;;;;;;27.50;17.27;;;;;;;4.54;71.68;95285.51;1822017;78;21067;-50
2021/03/01 01:05:54;;;;;;;27.82;18.42;;;;;;;4.54;71.63;95291.74;1805625;79;21079;-51
2021/03/01 01:08:23;;;;;;;26.52;19.17;;;;;;;4.49;71.57;95291.37;1822010;78;21051;-50
2021/03/01 01:10:51;;;;;;;32.70;20.60;;;;;;;4.43;72.05;95293.72;1808431;79;21067;-50
2021/03/01 01:13:20;;;;;;;26.35;17.37;;;;;;;4.51;72.11;95288.45;1822077;78;21425;-49
2021/03/01 01:15:49;;;;;;;27.45;18.55;;;;;;;4.62;71.90;95289.17;1822007;78;21146;-49
2021/03/01 01:18:17;;;;;;;26.40;18.73;;;;;;;4.69;71.43;95285.07;1822072;78;21143;-49
2021/03/01 01:20:46;;;;;;;23.55;17.00;;;;;;;4.66;71.29;95284.50;1809419;79;21048;-50
2021/03/01 01:23:14;;;;;;;25.05;18.27;;;;;;;4.60;71.56;95286.06;1822098;78;21203;-50
2021/03/01 01:25:43;;;;;;;23.87;18.62;;;;;;;4.54;71.64;95282.20;1822069;78;21465;-49
2021/03/01 01:28:12;;;;;;;26.30;18.80;;;;;;;4.51;71.92;95287.09;1821985;78;21088;-50
2021/03/01 01:30:41;;;;;;;25.25;16.55;;;;;;;4.55;72.12;95278.31;1822091;78;21129;-50
2021/03/01 01:33:09;;;;;;;21.95;15.83;;;;;;;4.64;71.91;95288.19;1809434;79;21143;-50
2021/03/01 01:35:38;;;;;;;13.58;12.15;;;;;;;4.69;71.64;95287.80;1822060;78;21547;-50
2021/03/01 01:38:07;;;;;;;25.37;18.02;;;;;;;4.75;71.53;95293.61;1822170;78;21350;-50
2021/03/01 01:40:36;;;;;;;28.87;21.25;;;;;;;4.67;71.39;95286.05;1822016;78;21499;-51
2021/03/01 01:43:05;;;;;;;28.12;19.25;;;;;;;4.67;71.70;95289.35;1809442;79;21048;-49
2021/03/01 01:45:35;;;;;;;27.13;18.92;;;;;;;4.69;71.69;95293.24;1822110;78;21039;-49
2021/03/01 01:48:05;;;;;;;27.20;19.92;;;;;;;4.72;71.73;95299.83;1822180;78;21125;-50
2021/03/01 01:50:33;;;;;;;26.62;18.35;;;;;;;4.72;71.57;95304.71;1809725;79;21198;-50
2021/03/01 01:53:02;;;;;;;22.40;17.23;;;;;;;4.74;71.55;95306.45;1822285;78;21056;-49
2021/03/01 01:55:31;;;;;;;19.17;15.50;;;;;;;4.68;71.41;95302.59;1822215;78;21123;-49
2021/03/01 01:57:59;;;;;;;29.92;21.52;;;;;;;4.62;71.41;95305.52;1809597;79;21103;-50
2021/03/01 02:00:46;;;;;;;46.18;31.70;;;;;;;4.47;71.64;95308.13;1822315;78;21162;-51
2021/03/01 02:03:35;;;;;;;48.13;35.38;;;;;;;4.40;72.26;95312.81;1809638;79;21495;-49
2021/03/01 02:06:37;;;;;;;30.82;24.43;;;;;;;4.39;72.28;95316.11;1822198;78;21059;-50
2021/03/01 02:09:26;;;;;;;38.48;27.55;;;;;;;4.41;72.51;95317.85;1809520;79;21156;-50
2021/03/01 02:12:08;;;;;;;39.73;29.52;;;;;;;4.41;72.37;95324.66;1816332;78;21060;-50
2021/03/01 02:14:54;;;;;;;35.48;26.42;;;;;;;4.36;72.66;95329.16;1806646;79;21151;-50
2021/03/01 02:17:22;;;;;;;33.28;24.07;;;;;;;4.38;72.89;95341.03;1822252;78;21368;-50
2021/03/01 02:19:50;;;;;;;27.90;21.48;;;;;;;4.40;72.57;95338.09;1806428;79;21131;-50
2021/03/01 02:22:19;;;;;;;34.05;23.47;;;;;;;4.35;72.51;95334.41;1822210;78;21099;-50
2021/03/01 02:24:57;;;;;;;93.80;51.37;;;;;;;4.36;72.93;95345.50;1806559;79;21552;-50
2021/03/01 02:27:30;;;;;;;99.50;50.80;;;;;;;4.38;72.61;95343.76;1819485;78;21067;-49
2021/03/01 02:30:08;;;;;;;;;;;;;;;4.33;72.93;95347.66;1809206;79;23371;-50
2021/03/01 02:32:36;;;;;;;125.45;60.23;;;;;;;4.42;73.08;95347.24;1806393;79;20228;-51
2021/03/01 02:35:07;;;;;;;77.72;41.08;;;;;;;4.49;72.96;95345.28;1806560;79;21036;-51
2021/03/01 02:37:37;;;;;;;83.25;45.03;;;;;;;4.57;72.79;95352.25;1822214;78;21075;-50
2021/03/01 02:40:06;;;;;;;73.50;36.93;;;;;;;4.61;72.42;95350.28;1822187;78;21480;-51
2021/03/01 02:42:35;;;;;;;94.60;47.25;;;;;;;4.57;72.43;95345.44;1806464;79;21258;-50
2021/03/01 02:45:05;;;;;;;97.45;47.62;;;;;;;4.59;72.57;95351.27;1822134;78;21084;-50
2021/03/01 02:47:33;;;;;;;81.87;43.17;;;;;;;4.68;72.34;95357.66;1822100;78;21635;-50
2021/03/01 02:50:02;;;;;;;47.83;28.45;;;;;;;4.67;72.19;95344.64;1822184;78;21068;-50
2021/03/01 02:52:31;;;;;;;16.73;11.05;;;;;;;4.69;72.30;95349.11;1822265;78;21552;-51
2021/03/01 02:54:59;;;;;;;26.50;17.02;;;;;;;4.67;72.09;95347.37;1822276;78;22174;-50
2021/03/01 02:57:27;;;;;;;25.60;15.88;;;;;;;4.64;72.32;95352.22;1806345;79;21162;-51
2021/03/01 02:59:56;;;;;;;32.67;21.52;;;;;;;4.65;72.02;95365.27;1822215;78;21044;-51
2021/03/01 03:02:26;;;;;;;28.25;19.45;;;;;;;4.51;72.09;95371.55;1806454;79;21092;-51
2021/03/01 03:04:55;;;;;;;14.43;12.00;;;;;;;4.44;72.54;95368.81;1822183;78;21076;-51
2021/03/01 03:07:23;;;;;;;8.70;6.55;;;;;;;4.39;72.30;95361.66;1822258;78;22157;-50
2021/03/01 03:09:51;;;;;;;6.30;5.70;;;;;;;4.21;72.60;95360.91;1822156;78;21067;-52
2021/03/01 03:12:20;;;;;;;28.12;20.72;;;;;;;4.00;73.13;95369.86;1806445;79;21143;-50
2021/03/01 03:14:48;;;;;;;7.15;6.50;;;;;;;3.93;73.79;95367.16;1822153;78;21119;-50
2021/03/01 03:17:16;;;;;;;8.43;7.58;;;;;;;3.97;73.79;95373.37;1822205;78;21055;-51
2021/03/01 03:19:45;;;;;;;5.55;5.05;;;;;;;3.99;73.59;95373.75;1792810;78;22127;-49
2021/03/01 03:22:13;;;;;;;7.80;7.00;;;;;;;4.02;73.65;95380.38;1822113;78;21496;-50
2021/03/01 03:24:41;;;;;;;9.08;8.18;;;;;;;4.06;73.27;95370.25;1792584;78;21071;-50
2021/03/01 03:27:10;;;;;;;18.65;14.00;;;;;;;4.03;73.20;95384.65;1822158;78;21135;-51
2021/03/01 03:29:38;;;;;;;15.48;10.58;;;;;;;4.06;73.53;95381.91;1806391;79;21111;-50
2021/03/01 03:32:06;;;;;;;4.85;4.45;;;;;;;4.16;73.38;95387.94;1822128;78;21336;-50
2021/03/01 03:34:35;;;;;;;5.67;5.03;;;;;;;4.07;72.32;95392.98;1792733;78;21079;-51
2021/03/01 03:37:13;;;;;;;5.47;4.97;;;;;;;4.01;72.45;95401.36;1822127;78;21479;-51
2021/03/01 03:39:44;;;;;;;4.62;4.30;;;;;;;4.05;71.68;95414.38;1822089;78;21147;-50
2021/03/01 03:42:15;;;;;;;5.17;4.78;;;;;;;4.05;71.33;95404.09;1806497;79;21060;-51
2021/03/01 03:44:43;;;;;;;5.60;5.10;;;;;;;3.96;70.71;95394.16;1822151;78;21368;-51
2021/03/01 03:47:12;;;;;;;6.60;6.00;;;;;;;3.84;71.17;95395.33;1822051;78;21100;-50
2021/03/01 03:49:41;;;;;;;6.40;5.80;;;;;;;3.85;71.38;95396.87;1822217;78;21068;-50
2021/03/01 03:52:10;;;;;;;12.15;8.95;;;;;;;3.89;71.68;95397.65;1806484;79;21586;-51
2021/03/01 03:54:41;;;;;;;17.70;10.60;;;;;;;3.91;71.96;95388.52;1793320;78;21115;-51
2021/03/01 03:57:12;;;;;;;14.18;10.08;;;;;;;3.92;72.19;95385.22;1822101;78;21374;-50
2021/03/01 03:59:41;;;;;;;13.03;9.60;;;;;;;3.92;72.26;95396.90;1822088;78;21082;-51
2021/03/01 04:02:10;;;;;;;25.50;18.27;;;;;;;3.99;72.69;95404.27;1806393;79;21109;-50
2021/03/01 04:04:39;;;;;;;24.30;14.95;;;;;;;4.05;72.97;95404.85;1839345;78;21544;-51
2021/03/01 04:07:07;;;;;;;14.40;11.70;;;;;;;4.05;72.75;95411.66;1806407;79;21167;-50
2021/03/01 04:09:36;;;;;;;11.63;9.50;;;;;;;4.00;72.78;95403.89;1806348;79;21391;-51
2021/03/01 04:12:05;;;;;;;11.75;10.23;;;;;;;4.01;73.15;95409.52;1821989;78;21475;-49
2021/03/01 04:14:33;;;;;;;10.30;9.20;;;;;;;4.05;73.14;95410.30;1822118;78;21061;-48
2021/03/01 04:17:06;;;;;;;9.68;8.68;;;;;;;4.03;73.08;95414.00;1822137;78;21052;-51
2021/03/01 04:19:34;;;;;;;12.13;10.80;;;;;;;4.02;73.31;95411.08;1822177;78;21031;-50
2021/03/01 04:22:02;;;;;;;10.82;9.73;;;;;;;4.00;73.35;95412.05;1806337;79;21271;-51
2021/03/01 04:24:31;;;;;;;14.93;11.45;;;;;;;4.05;73.49;95417.70;1822094;78;21140;-50
2021/03/01 04:27:00;;;;;;;20.57;13.68;;;;;;;4.03;73.52;95415.35;1776316;79;21100;-49
2021/03/01 04:29:28;;;;;;;16.10;11.93;;;;;;;4.03;73.90;95427.61;1822154;78;21143;-49
2021/03/01 04:31:57;;;;;;;13.60;10.70;;;;;;;4.12;73.92;95429.38;1806395;79;21067;-50
2021/03/01 04:34:26;;;;;;;8.45;7.65;;;;;;;4.24;73.81;95428.20;1822160;78;22277;-51
2021/03/01 04:36:55;;;;;;;11.38;10.00;;;;;;;4.36;73.31;95438.10;1806395;79;21634;-50
2021/03/01 04:39:24;;;;;;;15.98;11.45;;;;;;;4.44;73.23;95445.09;1822102;78;21106;-50
2021/03/01 04:41:52;;;;;;;11.70;9.58;;;;;;;4.54;72.80;95453.84;1806375;79;21075;-51
2021/03/01 04:44:20;;;;;;;9.30;8.25;;;;;;;4.61;72.59;95457.91;1822130;78;21148;-51
2021/03/01 04:46:55;;;;;;;5.90;5.40;;;;;;;4.63;72.25;95456.17;1806325;79;21203;-50
2021/03/01 04:49:23;;;;;;;5.97;5.45;;;;;;;4.48;71.15;95455.42;1821938;78;21099;-49
2021/03/01 04:51:51;;;;;;;5.83;5.33;;;;;;;4.31;70.81;95454.05;1822105;78;21091;-50
2021/03/01 04:54:20;;;;;;;5.45;4.97;;;;;;;4.17;71.24;95463.58;1822053;78;21154;-50
2021/03/01 04:56:48;;;;;;;6.30;5.75;;;;;;;4.17;71.38;95454.84;1806461;79;21119;-49
2021/03/01 04:59:18;;;;;;;10.53;9.35;;;;;;;4.17;71.16;95448.03;1822085;78;21451;-50
2021/03/01 05:01:50;;;;;;;6.10;5.60;;;;;;;4.17;71.63;95461.65;1806338;79;21154;-49
2021/03/01 05:04:19;;;;;;;6.70;6.10;;;;;;;4.17;71.40;95473.11;1822235;78;21143;-49
2021/03/01 05:06:48;;;;;;;5.95;5.45;;;;;;;4.04;71.84;95460.46;1822066;78;21135;-50
2021/03/01 05:09:17;;;;;;;6.45;5.87;;;;;;;3.96;71.89;95465.72;1806313;79;21060;-49
2021/03/01 05:11:45;;;;;;;5.62;5.12;;;;;;;3.92;72.21;95471.75;1823473;78;21477;-50
2021/03/01 05:14:13;;;;;;;5.65;5.15;;;;;;;3.94;72.38;95478.94;1812307;79;21080;-49
2021/03/01 05:16:42;;;;;;;5.95;5.35;;;;;;;3.94;72.50;95474.86;1825248;78;21156;-51
2021/03/01 05:19:10;;;;;;;4.72;4.33;;;;;;;3.95;72.51;95482.42;1812295;79;21150;-51
2021/03/01 05:21:39;;;;;;;7.40;6.70;;;;;;;3.91;72.24;95482.41;1825383;78;21114;-51
2021/03/01 05:24:08;;;;;;;9.83;7.85;;;;;;;3.94;72.67;95481.66;1825438;78;21391;-50
2021/03/01 05:26:37;;;;;;;7.40;6.70;;;;;;;4.00;72.95;95489.63;1825356;78;21198;-50
2021/03/01 05:29:05;;;;;;;6.17;5.60;;;;;;;3.99;73.22;95495.45;1825409;78;21175;-50
2021/03/01 05:31:35;;;;;;;6.95;6.33;;;;;;;4.01;72.58;95489.03;1825431;78;21088;-49
2021/03/01 05:34:03;;;;;;;6.15;5.60;;;;;;;4.00;71.95;95503.24;1825446;78;21060;-49
2021/03/01 05:36:32;;;;;;;5.90;5.40;;;;;;;4.06;71.67;95507.13;1825421;78;21352;-50
2021/03/01 05:39:00;;;;;;;6.17;5.67;;;;;;;4.06;71.04;95505.77;1812424;79;21111;-50
2021/03/01 05:41:29;;;;;;;7.95;7.15;;;;;;;3.91;70.47;95497.98;1825392;78;21111;-51
2021/03/01 05:43:57;;;;;;;29.00;15.58;;;;;;;3.72;70.78;95501.81;1825425;78;21138;-51
2021/03/01 05:46:26;;;;;;;16.95;11.80;;;;;;;3.65;71.11;95520.84;1825438;78;21853;-52
2021/03/01 05:48:54;;;;;;;9.73;7.90;;;;;;;3.74;71.02;95530.01;1825422;78;21203;-49
2021/03/01 05:51:26;;;;;;;7.33;6.67;;;;;;;3.83;71.18;95518.19;1825378;78;21095;-52
2021/03/01 05:54:01;;;;;;;7.40;6.70;;;;;;;3.89;70.84;95528.89;1825400;78;21068;-51
2021/03/01 05:56:29;;;;;;;6.72;6.12;;;;;;;3.86;70.77;95523.62;1812535;79;21139;-50
2021/03/01 05:58:57;;;;;;;7.35;6.62;;;;;;;3.77;70.80;95531.39;1825499;78;21167;-50
2021/03/01 06:01:26;;;;;;;7.62;6.92;;;;;;;3.71;70.75;95544.39;1825407;78;21209;-50
2021/03/01 06:03:55;;;;;;;7.47;6.78;;;;;;;3.62;71.53;95548.03;1812404;79;21068;-50
2021/03/01 06:06:23;;;;;;;8.53;7.67;;;;;;;3.55;71.80;95548.02;1825460;78;21484;-50
2021/03/01 06:08:51;;;;;;;10.30;9.18;;;;;;;3.53;71.99;95541.58;1812387;79;21123;-50
2021/03/01 06:11:20;;;;;;;13.80;10.20;;;;;;;3.56;71.81;95570.77;1824490;78;21203;-52
2021/03/01 06:13:48;;;;;;;8.60;7.80;;;;;;;3.53;71.67;95564.70;1820582;78;21357;-50
2021/03/01 06:16:16;;;;;;;9.75;7.78;;;;;;;3.40;71.30;95567.38;1820444;78;21091;-52
2021/03/01 06:18:44;;;;;;;8.50;7.67;;;;;;;3.37;71.75;95559.39;1796265;79;20995;-51
2021/03/01 06:21:17;;;;;;;13.18;10.13;;;;;;;3.48;71.95;95566.44;1810975;79;21477;-51
2021/03/01 06:23:46;;;;;;;9.15;7.75;;;;;;;3.57;72.05;95568.81;1756920;79;21087;-50
2021/03/01 06:26:32;;;;;;;9.50;8.48;;;;;;;3.64;71.67;95570.98;1786564;80;21186;-52
2021/03/01 06:29:09;;;;;;;9.83;8.18;;;;;;;3.63;71.69;95568.06;1774793;80;21141;-50
2021/03/01 06:31:44;;;;;;;10.18;9.15;;;;;;;3.61;71.64;95562.23;1787335;80;21076;-50
2021/03/01 06:34:30;;;;;;;13.13;9.00;;;;;;;3.53;71.74;95581.63;1787390;80;21470;-49
2021/03/01 06:37:15;;;;;;;9.95;8.70;;;;;;;3.41;71.74;95577.09;1787157;80;21545;-49
2021/03/01 06:39:51;;;;;;;11.40;9.23;;;;;;;3.33;72.24;95582.28;1791307;79;21337;-52
2021/03/01 06:42:24;;;;;;;13.15;9.80;;;;;;;3.38;72.65;95581.94;1802354;79;21161;-53
2021/03/01 06:45:05;;;;;;;15.98;11.60;;;;;;;3.45;72.68;95586.81;1802682;79;21127;-50
2021/03/01 06:47:52;;;;;;;11.73;9.45;;;;;;;3.53;72.48;95595.22;1793754;79;21223;-50
2021/03/01 06:50:32;;;;;;;21.62;15.25;;;;;;;3.62;71.97;95593.70;1787072;80;21647;-50
2021/03/01 06:53:15;;;;;;;16.30;12.33;;;;;;;3.64;71.73;95598.19;1776347;78;21374;-50
2021/03/01 06:56:08;;;;;;;;;;;;;;;3.67;72.02;95600.14;1758134;81;21211;-51
2021/03/01 06:58:43;;;;;;;20.90;12.20;;;;;;;3.66;71.64;95601.89;1771379;78;20528;-50
2021/03/01 07:01:22;;;;;;;19.07;12.47;;;;;;;3.57;71.96;95595.45;1782021;79;21381;-56
2021/03/01 07:03:51;;;;;;;16.05;10.23;;;;;;;3.63;72.08;95610.23;1770772;78;21657;-56
2021/03/01 07:06:20;;;;;;;42.50;20.48;;;;;;;3.78;72.11;95619.23;1766352;78;22264;-55
2021/03/01 07:08:53;;;;;;;48.23;25.08;;;;;;;3.92;71.98;95620.66;1768775;78;21689;-57
2021/03/01 07:11:31;;;;;;;76.67;39.93;;;;;;;4.00;71.68;95617.58;1761971;79;21228;-56
2021/03/01 07:14:07;;;;;;;50.40;25.85;;;;;;;4.04;71.16;95628.48;1813998;78;21197;-55
2021/03/01 07:16:42;;;;;;;42.15;20.68;;;;;;;4.01;71.07;95632.74;1805889;78;21158;-56
2021/03/01 07:19:16;;;;;;;28.07;15.83;;;;;;;3.97;71.30;95633.32;1801159;78;21384;-54
2021/03/01 07:21:48;;;;;;;45.48;22.13;;;;;;;3.94;71.61;95636.81;1799230;78;21559;-55
2021/03/01 07:24:19;;;;;;;37.10;20.35;;;;;;;3.92;71.13;95644.58;1818530;78;21487;-53
2021/03/01 07:26:48;;;;;;;27.25;16.75;;;;;;;3.85;71.30;95640.45;1806633;78;21497;-56
2021/03/01 07:29:18;;;;;;;21.40;13.58;;;;;;;3.84;71.32;95651.14;1788741;79;21599;-56
2021/03/01 07:32:03;;;;;;;18.90;12.45;;;;;;;3.81;71.25;95649.19;1823397;78;21376;-57
2021/03/01 07:34:34;;;;;;;24.05;14.90;;;;;;;3.77;71.38;95645.67;1803339;79;21546;-54
2021/03/01 07:37:03;;;;;;;19.23;13.75;;;;;;;3.67;71.79;95643.67;1798205;79;21071;-59
2021/03/01 07:39:32;;;;;;;11.65;8.98;;;;;;;3.62;72.14;95642.68;1793220;79;21150;-55
2021/03/01 07:42:01;;;;;;;14.93;11.68;;;;;;;3.65;72.16;95643.87;1785788;79;21580;-55
2021/03/01 07:44:32;;;;;;;35.55;25.35;;;;;;;3.65;72.32;95643.27;1808435;78;21410;-54
2021/03/01 07:47:03;;;;;;;19.90;15.10;;;;;;;3.66;72.64;95639.39;1808568;78;21546;-56
2021/03/01 07:49:48;;;;;;;23.25;15.78;;;;;;;3.79;73.07;95649.36;1813776;78;21114;-56
2021/03/01 07:52:32;;;;;;;22.90;16.93;;;;;;;3.96;73.03;95661.70;1811306;78;21186;-56
2021/03/01 07:55:10;;;;;;;22.25;16.23;;;;;;;4.03;72.97;95652.20;1813139;78;21579;-55
2021/03/01 07:57:40;;;;;;;23.05;17.87;;;;;;;4.13;73.14;95661.00;1815616;78;21210;-55
2021/03/01 08:00:33;;;;;;;27.02;21.23;;;;;;;4.19;72.93;95651.85;1814888;78;21268;-56
2021/03/01 08:03:04;;;;;;;78.12;48.20;;;;;;;4.22;73.01;95664.13;1826445;78;21173;-55
2021/03/01 08:05:32;;;;;;;58.45;37.33;;;;;;;4.25;73.05;95661.99;1802487;78;21095;-56
2021/03/01 08:08:01;;;;;;;76.57;52.43;;;;;;;4.24;73.17;95663.16;1808185;78;21536;-56
2021/03/01 08:10:35;;;;;;;38.42;26.70;;;;;;;4.23;73.25;95665.69;1809397;78;22726;-57
2021/03/01 08:13:05;;;;;;;49.08;30.68;;;;;;;4.26;73.44;95670.36;1790936;78;21198;-56
2021/03/01 08:15:40;;;;;;;28.87;21.10;;;;;;;4.39;73.31;95693.37;1792003;79;21595;-57
2021/03/01 08:18:11;;;;;;;18.20;13.28;;;;;;;4.47;73.11;95686.00;1788199;78;21169;-56
2021/03/01 08:20:56;;;;;;;11.93;8.38;;;;;;;4.29;72.41;95686.52;1787550;79;21186;-57
2021/03/01 08:23:31;;;;;;;;;;;;;;;4.17;72.06;95682.20;1792362;79;22298;-60
2021/03/01 08:25:59;;;;;;;8.35;7.37;;;;;;;4.21;71.65;95696.61;1801340;79;20291;-56
2021/03/01 08:28:35;;;;;;;8.33;7.30;;;;;;;4.20;70.79;95697.02;1790541;79;21583;-57
2021/03/01 08:31:17;;;;;;;16.67;12.55;;;;;;;4.24;70.89;95697.20;1790884;79;21120;-54
2021/03/01 08:33:46;;;;;;;9.43;7.97;;;;;;;4.35;70.60;95691.22;1788189;79;21470;-53
2021/03/01 08:36:20;;;;;;;10.08;8.18;;;;;;;4.44;70.15;95694.95;1799396;78;21192;-51
2021/03/01 08:38:54;;;;;;;11.08;9.23;;;;;;;4.48;70.06;95704.70;1786536;79;21162;-53
2021/03/01 08:41:33;;;;;;;9.10;7.40;;;;;;;4.54;69.57;95724.95;1785367;79;21123;-50
2021/03/01 08:44:03;;;;;;;10.20;7.55;;;;;;;4.44;68.85;95721.59;1782621;79;21203;-53
2021/03/01 08:46:31;;;;;;;7.75;7.03;;;;;;;4.31;68.93;95707.34;1795210;79;21107;-53
2021/03/01 08:49:00;;;;;;;7.10;6.40;;;;;;;4.28;69.12;95711.61;1788559;78;21842;-52
2021/03/01 08:51:29;;;;;;;15.43;11.18;;;;;;;4.30;68.84;95709.30;1789859;79;21591;-53
2021/03/01 08:53:57;;;;;;;34.10;19.05;;;;;;;4.41;68.88;95723.72;1793391;79;21166;-52
2021/03/01 08:56:27;;;;;;;8.33;7.42;;;;;;;4.46;68.73;95723.34;1787798;78;21198;-52
2021/03/01 08:58:56;;;;;;;10.95;8.18;;;;;;;4.44;68.08;95729.77;1798202;78;21147;-57
2021/03/01 09:01:26;;;;;;;251.50;107.58;;;;;;;4.45;68.23;95729.20;1792315;78;21272;-51
2021/03/01 09:03:55;;;;;;;57.60;30.45;;;;;;;4.51;67.62;95729.02;1805574;78;21207;-51
2021/03/01 09:06:27;;;;;;;21.12;15.05;;;;;;;4.57;67.66;95730.98;1792488;78;33403;-55
2021/03/01 09:08:56;;;;;;;20.00;15.23;;;;;;;4.60;67.53;95730.21;1797587;78;21124;-54
2021/03/01 09:11:28;;;;;;;42.50;28.87;;;;;;;4.67;67.73;95734.34;1784206;79;21182;-55
2021/03/01 09:14:01;;;;;;;31.90;22.40;;;;;;;4.79;67.37;95746.83;1811279;78;21262;-55
2021/03/01 09:16:31;;;;;;;17.90;13.58;;;;;;;4.96;67.24;95746.85;1804855;79;21703;-53
2021/03/01 09:19:12;;;;;;;23.77;17.00;;;;;;;5.18;67.14;95751.77;1805787;78;21583;-51
2021/03/01 09:21:42;;;;;;;21.12;14.63;;;;;;;5.31;67.26;95753.72;1804834;78;21183;-52
2021/03/01 09:24:11;;;;;;;45.15;27.87;;;;;;;5.45;67.26;95752.37;1803743;78;21614;-51
2021/03/01 09:26:43;;;;;;;89.00;52.15;;;;;;;5.46;65.28;95758.02;1804057;78;21198;-56
2021/03/01 09:29:14;;;;;;;25.00;19.87;;;;;;;5.44;65.55;95768.55;1813625;78;21213;-56
2021/03/01 09:31:52;;;;;;;34.78;22.40;;;;;;;5.56;65.08;95759.95;1822591;77;21115;-51
2021/03/01 09:34:22;;;;;;;17.40;12.68;;;;;;;5.60;64.11;95760.76;1793008;78;21126;-54
2021/03/01 09:36:52;;;;;;;17.70;12.55;;;;;;;5.60;63.49;95760.76;1805019;78;21186;-58
2021/03/01 09:39:25;;;;;;;18.05;13.05;;;;;;;5.73;63.64;95764.63;1791226;80;22308;-57
2021/03/01 09:41:55;;;;;;;;;;;;;;;5.88;63.62;95765.64;1795716;78;21219;-55
2021/03/01 09:44:31;;;;;;;8.65;7.25;;;;;;;6.07;62.54;95765.79;1797593;78;20227;-53
2021/03/01 09:47:00;;;;;;;11.05;8.70;;;;;;;6.18;62.58;95762.47;1800510;78;21193;-56
2021/03/01 09:49:30;;;;;;;15.15;11.75;;;;;;;6.41;62.64;95770.98;1801142;78;21091;-53
2021/03/01 09:51:59;;;;;;;15.85;13.00;;;;;;;6.57;62.57;95766.64;1791159;79;21662;-54
2021/03/01 09:54:27;;;;;;;13.93;10.65;;;;;;;6.75;62.42;95762.45;1816410;78;21509;-54
2021/03/01 09:56:59;;;;;;;11.43;6.87;;;;;;;6.99;62.23;95761.55;1793313;79;21189;-55
2021/03/01 09:59:36;;;;;;;7.50;6.72;;;;;;;7.18;61.42;95763.96;1762544;80;21602;-56
2021/03/01 10:02:17;;;;;;;9.78;8.23;;;;;;;7.31;60.88;95773.27;1792064;78;21159;-54
2021/03/01 10:04:47;;;;;;;17.20;13.00;;;;;;;7.44;60.61;95774.37;1793172;78;21441;-55
2021/03/01 10:07:25;;;;;;;30.37;21.60;;;;;;;7.40;60.90;95780.47;1792001;78;21130;-55
2021/03/01 10:09:57;;;;;;;12.43;10.18;;;;;;;7.21;60.99;95783.72;1801172;78;21276;-55
2021/03/01 10:12:26;;;;;;;7.30;6.60;;;;;;;7.09;61.20;95793.74;1799721;78;21115;-54
2021/03/01 10:15:00;;;;;;;8.53;6.47;;;;;;;7.09;60.65;95793.74;1798901;78;21654;-55
2021/03/01 10:17:31;;;;;;;7.70;7.00;;;;;;;7.03;58.98;95791.81;1806960;78;21297;-55
2021/03/01 10:20:09;;;;;;;8.03;5.80;;;;;;;6.93;58.99;95797.34;1792374;79;21131;-54
2021/03/01 10:23:06;;;;;;;5.53;5.03;;;;;;;6.75;59.21;95801.53;1782735;80;21174;-53
2021/03/01 10:25:41;;;;;;;6.42;5.83;;;;;;;6.65;58.98;95802.91;1781555;80;21238;-51
2021/03/01 10:28:33;;;;;;;10.93;7.03;;;;;;;6.64;59.23;95805.45;1817232;78;21194;-55
2021/03/01 10:31:13;;;;;;;5.67;5.22;;;;;;;6.68;58.91;95814.45;1807498;78;21366;-55
2021/03/01 10:33:55;;;;;;;10.70;9.05;;;;;;;6.64;58.34;95802.72;1801028;79;21107;-56
2021/03/01 10:36:35;;;;;;;7.30;6.08;;;;;;;6.52;57.64;95804.53;1782121;79;21146;-57
2021/03/01 10:39:18;;;;;;;9.25;6.83;;;;;;;6.49;58.30;95805.33;1797261;78;21211;-54
2021/03/01 10:41:53;;;;;;;6.53;5.93;;;;;;;6.57;58.34;95803.55;1812458;78;21689;-53
2021/03/01 10:44:35;;;;;;;5.62;5.12;;;;;;;6.65;58.60;95807.02;1805336;78;21366;-54
2021/03/01 10:47:18;;;;;;;7.50;6.28;;;;;;;6.69;58.50;95807.20;1796719;78;21076;-57
2021/03/01 10:49:49;;;;;;;6.25;5.65;;;;;;;6.69;58.86;95814.03;1792182;78;21154;-57
2021/03/01 10:52:18;;;;;;;9.88;7.47;;;;;;;6.67;58.72;95815.63;1798382;78;21173;-54
2021/03/01 10:54:48;;;;;;;6.70;6.00;;;;;;;6.59;58.33;95815.44;1787996;78;21651;-56
2021/03/01 10:57:17;;;;;;;7.78;6.97;;;;;;;6.44;58.77;95811.98;1792731;78;22379;-54
2021/03/01 10:59:50;;;;;;;7.50;6.62;;;;;;;6.38;58.88;95801.84;1793209;78;21195;-55
2021/03/01 11:02:17;;;;;;;9.90;9.00;;;;;;;6.39;59.40;95811.59;1805995;78;21316;-55
2021/03/01 11:04:46;;;;;;;8.55;7.65;;;;;;;6.41;59.12;95807.88;1788521;80;21500;-54
2021/03/01 11:07:14;;;;;;;9.85;7.20;;;;;;;6.45;58.81;95798.50;1791030;79;21134;-57
2021/03/01 11:09:44;;;;;;;13.80;9.13;;;;;;;6.48;59.27;95799.67;1753406;80;22733;-54
2021/03/01 11:12:15;;;;;;;11.95;8.55;;;;;;;6.56;59.41;95791.63;1787306;80;21191;-55
2021/03/01 11:14:43;;;;;;;12.85;9.08;;;;;;;6.72;59.35;95798.80;1794117;78;21120;-56
2021/03/01 11:17:12;;;;;;;8.03;7.22;;;;;;;6.80;58.32;95794.84;1822360;78;21178;-53
2021/03/01 11:19:41;;;;;;;10.88;8.30;;;;;;;6.91;58.16;95787.39;1818490;78;21745;-56
2021/03/01 11:22:10;;;;;;;8.90;7.60;;;;;;;6.93;58.29;95791.88;1827324;78;21210;-55
2021/03/01 11:24:39;;;;;;;8.48;7.58;;;;;;;6.91;58.57;95796.36;1818227;78;21583;-55
2021/03/01 11:27:07;;;;;;;12.18;8.88;;;;;;;6.93;58.45;95796.77;1827064;78;21171;-55
2021/03/01 11:29:36;;;;;;;12.50;9.55;;;;;;;6.95;58.56;95797.14;1818170;78;21139;-57
2021/03/01 11:32:06;;;;;;;18.10;12.82;;;;;;;6.97;59.10;95796.16;1795033;80;21066;-55
2021/03/01 11:34:35;;;;;;;12.23;9.15;;;;;;;6.92;59.93;95802.63;1793138;80;21241;-55
2021/03/01 11:37:04;;;;;;;11.12;8.20;;;;;;;6.81;59.72;95804.03;1818526;78;21151;-55
2021/03/01 11:39:32;;;;;;;15.58;10.50;;;;;;;6.66;59.46;95803.13;1823719;78;21640;-55
2021/03/01 11:42:01;;;;;;;10.78;9.68;;;;;;;6.55;59.56;95802.37;1788282;80;21158;-55
2021/03/01 11:44:30;;;;;;;11.40;9.38;;;;;;;6.45;59.29;95797.70;1801885;78;21162;-55
2021/03/01 11:46:58;;;;;;;16.73;11.68;;;;;;;6.29;59.70;95805.55;1819497;78;22318;-55
2021/03/01 11:49:27;;;;;;;16.17;12.80;;;;;;;6.10;60.82;95816.91;1820600;78;21150;-55
2021/03/01 11:51:56;;;;;;;17.77;11.88;;;;;;;5.88;61.74;95812.06;1805018;79;21048;-55